No particular awareness of the weather is required.    There are no Weather-warnings
 Banner
iom-flag.gif  iom-flag.gif


Ballaugh webcam more information Ballaugh webcam


Thunder radar more information blitzortung!


Rain radar more information rain snow radar


Visit our other weather sites:

Template documentation
and downloads

And another site



Nearby METAR Reports

   
EGNS - Isle Of Man/Rona, United Kingdom
Distance from station: SSW 16 mi
Updated: 17-07-2019 00:50
Mostly Cloudy  
Mostly Cloudy  
   Wind: SW 4.6 mph
Wind: SW 4.6 mph
Temperature: 15°C
Dew Point: 14°C
Humidity: 94%
Barometer: 1015 hPa
Clouds: Mostly Cloudy
Visibility: More than 6 mi
Cloud details: Mostly Cloudy 600 ft
EGNS 162350Z 22004KT 180V270 9999 BKN006 15/14 Q1015
EGAC - Belfast Harbour, United Kingdom
Distance from station: WNW 57 mi
Updated: 17-07-2019 01:20
Clear  
Clear  
   Wind: SSW 8.1 mph
Wind: SSW 8.1 mph
Temperature: 17°C
Dew Point: 13°C
Humidity: 77%
Barometer: 1014 hPa
Clouds: Clear
Visibility: More than 6 mi
Cloud details: Clear ft
EGAC 170020Z AUTO 20007KT 9999 NCD 17/13 Q1014
EGAA - Belfast/Aldergro, United Kingdom
Distance from station: WNW 71 mi
Updated: 17-07-2019 01:20
Mostly Cloudy  
Mostly Cloudy  
   Wind: South 5.8 mph
Wind: South 5.8 mph
Temperature: 16°C
Dew Point: 12°C
Humidity: 77%
Barometer: 1014 hPa
Clouds: Mostly Cloudy
Visibility: More than 6 mi
Cloud details: Mostly Cloudy 4800 ft
EGAA 170020Z 19005KT 9999 BKN048 16/12 Q1014
EGNH - Blackpool Airpor, United Kingdom
Distance from station: ESE 73 mi
Updated: 16-07-2019 21:50
NOT Current
Clear  
Clear  
   Wind: SSE 2.3 mph
Wind: SSE 2.3 mph
Temperature: 16°C
Dew Point: 12°C
Humidity: 77%
Barometer: 1017 hPa
Visibility: More than 6 mi
Cloud details: Clear ft
EGNH 162050Z 15002KT CAVOK 16/12 Q1017
EGOV - Valley Raf, United Kingdom
Distance from station: S 73 mi
Updated: 17-07-2019 00:50
Partly Cloudy  
Partly Cloudy  
   Wind: South 17.3 mph
Wind: South 17.3 mph
Temperature: 16°C
Dew Point: 14°C
Humidity: 88%
Barometer: 1016 hPa
Clouds: Partly Cloudy
Visibility: More than 6 mi
Cloud details: Partly Cloudy 21000 ft
EGOV 162350Z AUTO 17015KT 9999 SCT210/// 16/14 Q1016
EGPK - Prestwick(Civ/Na, United Kingdom
Distance from station: N 82 mi
Updated: 17-07-2019 00:50
Few Clouds  
Few Clouds  
   Wind: SE 6.9 mph
Wind: SE 6.9 mph
Temperature: 16°C
Dew Point: 13°C
Humidity: 83%
Barometer: 1014 hPa
Clouds: Few Clouds
Visibility: More than 6 mi
Cloud details: Few Clouds 3000 ft
EGPK 162350Z 14006KT 9999 FEW030 16/13 Q1014
EIDW - Dublin Airport, Ireland
Distance from station: SW 93 mi
Updated: 17-07-2019 01:00
Mostly Cloudy  
Mostly Cloudy  
   Wind: WSW 4.6 mph
Wind: WSW 4.6 mph
Temperature: 16°C
Dew Point: 12°C
Humidity: 77%
Barometer: 1015 hPa
Clouds: Mostly Cloudy
Visibility: More than 6 mi
Cloud details: Partly Cloudy 2200 ft,
Mostly Cloudy 5000 ft
EIDW 170000Z 24004KT 200V280 9999 SCT022 BKN050 16/12 Q1015 NOSIG
EGGP - Liverpool Airpor, United Kingdom
Distance from station: SE 98 mi
Updated: 17-07-2019 01:20
Clear  
Clear  
   Wind: South 4.6 mph
Wind: South 4.6 mph
Temperature: 16°C
Dew Point: 14°C
Humidity: 88%
Barometer: 1017 hPa
Visibility: More than 6 mi
Cloud details: Clear ft
EGGP 170020Z 18004KT CAVOK 16/14 Q1017
EGPF - Glasgow Airport, United Kingdom
Distance from station: N 107 mi
Updated: 17-07-2019 01:20
Thunderstorm  
Thunderstorm  
   Wind: South 5.8 mph
Wind: South 5.8 mph
Temperature: 16°C
Dew Point: 14°C
Humidity: 88%
Barometer: 1014 hPa
Clouds: Thunderstorm
Visibility: More than 6 mi
Cloud details: Thunderstorm ft
EGPF 170020Z AUTO 17005KT 9999 //////TCU 16/14 Q1014
EGCC - Manchester Intl, United Kingdom
Distance from station: SE 114 mi
Updated: 17-07-2019 01:20
Clear  
Clear  
   Wind: Calm
Wind: Calm
Temperature: 14°C
Dew Point: 11°C
Humidity: 82%
Barometer: 1017 hPa
Clouds: Clear
Visibility: More than 6 mi
Cloud details: Clear ft
EGCC 170020Z AUTO 00000KT 9999 NCD 14/11 Q1017
EGNM - Leeds And Bradfo, United Kingdom
Distance from station: ESE 122 mi
Updated: 17-07-2019 01:20
Clear  
Clear  
   Wind: West 8.1 mph
Wind: West 8.1 mph
Temperature: 13°C
Dew Point: 7°C
Humidity: 67%
Barometer: 1017 hPa
Visibility: More than 6 mi
Cloud details: Clear ft
EGNM 170020Z 27007KT CAVOK 13/07 Q1017
 

Script developed by  Saratoga-weather.org Adapted for the template by  Weerstation Leuven

You find our weather info also at:

UK Metoffice

WeatherCloud

WeatherlinkIP

Equipment we use:

Weather-station
Davis VP2

Weather-program
Weather Display

Weather-server
My Computer

Provider
Fasthosts

Davis VP2

Weather Display

My Computer

Fasthosts

 Banner1
iom-flag.gif  iom-flag.gif
Flag Counter 

Hits since site created in 2003